Down Up Stop Top

TXC259
There are no active watches, warnings or advisories

Record high temperature 126.3°F Record low temperature 13.3°F Record high gust 49.5 mph Record high average 32.4 mph Record daily rain 4.23 in. Record low windchill 4.3°F Record high barometer 30.637 in. Record low barometer 28.496 in.
Daily high pressure 30.106 in. Daily low pressure 30.047 in. Daily low windchill 57.7°F Daily high heat index 63.1°F Daily high gust speed 4.5 mph NNW Daily high average speed 3.8 mph NNW
Welfare-Texas Weather
LAST READING AT TIME: 04:25 DATE: October 26 2014, time of next update: 04:30
Current WeatherNight time/Dry Current Temperature 58.3°F (14.6°C), Apparent temp 55.4°F
Maximum Temperature (since midnight)63.1°F at: 00:57 Minimum Temperature (since midnight)57.7°F at: 03:40
Average windspeed (ten minute)1.8 mph Wind Direction (ten minute)ENE (68°)
Windchill Temperature 58.3°F Maximum Gust (last hour)3.3 mph at: 04:08
Maximum Gust (since midnight)4.5 mph at: 02:23 Maximum 1 minute average (since midnight)3.8 mph at: 02:23
Rainfall (last hour)0.00 in. (0.0 mm) Rainfall (since midnight)0.00 in. (0.0 mm) ---
Rainfall This month 0.00 in. (0.0 mm) Rainfall To date this year 4.57 in. (116.0 mm)
Maximum rain per minute (last hour)0.00 in/min Maximum rain per hour (last 6 hours)0.00 in/hour
Yesterdays rainfall 0.00 in DewPoint 25.3°F (Wet Bulb :45.4°F )
Humidity 28 %, Humidex 52.9°F Barometer corrected to msl30.076 in. (1018.5 hPa)
Pressure change -0.03 in. (last hour) Trend (last hour)STEADY
Pressure change (last 12 hours)-0.03 in Pressure change (last 6 hours)-0.03 in

This page is updated from recent data collected by a WMR200 weather station Use the Reload or Refresh facility on your browser to retrieve the latest data.


Click here for the last 24 hour graph
Click here for the last 48 hour graph
Click here for the last 72 hour graph
Click here for the month to date graph


Weather report/warning/Metars

SAN ANTONIO INTERNATIONAL  AIRPORT , TX, United States (KSAT) 29-32N 098-28W 243M
Oct 26, 2014 - 04:51 AM EDT / 2014.10.26 0851 UTC
Wind: Calm:0
Visibility: 10 mile(s):0
Sky conditions: clear
Temperature: 64.9 F (18.3 C)
Dew Point: 61.0 F (16.1 C)
Relative Humidity: 86%
Pressure (altimeter): 30.07 in. Hg (1018 hPa)
Pressure tendency: 0.03 inches (0.9 hPa) lower than three hours ago
ob: KSAT 260851Z 00000KT 10SM CLR 18/16 A3007 RMK AO2 SLP164 T01830161 58009 
cycle: 9
NEW BRAUNFELS MUNICIPAL AIRPORT, TX, United States (KBAZ) 29-43N 98-03W 195M
Oct 26, 2014 - 04:51 AM EDT / 2014.10.26 0851 UTC
Wind: from the WSW (240 degrees) at 6 MPH (5 KT):0
Visibility: 10 mile(s):0
Sky conditions: clear
Temperature: 61.0 F (16.1 C)
Dew Point: 60.1 F (15.6 C)
Relative Humidity: 96%
Pressure (altimeter): 30.05 in. Hg (1017 hPa)
Pressure tendency: 0.03 inches (0.9 hPa) lower than three hours ago
ob: KBAZ 260851Z AUTO 24005KT 10SM CLR 16/16 A3005 RMK AO2 SLP168 T01610156 58009
cycle: 9
Kerrville, Kerrville Municipal Airport/Louis Schreiner Field, TX, United States (KERV) 29-58N 099-05W
Oct 26, 2014 - 04:55 AM EDT / 2014.10.26 0855 UTC
Wind: Calm:0
Visibility: 10 mile(s):0
Sky conditions: clear
Temperature: 61.0 F (16.1 C)
Dew Point: 57.6 F (14.2 C)
Relative Humidity: 88%
Pressure (altimeter): 30.09 in. Hg (1018 hPa)
ob: KERV 260855Z AUTO 00000KT 10SM CLR 16/14 A3009 RMK AO2 T01610142
cycle: 9
BANGOR INT'L AIRPORT, ME, United States (KBGR) 44-48N 068-49W 57M
Oct 26, 2014 - 05:00 AM EDT / 2014.10.26 0900 UTC
Wind: Calm (direction variable):0
Visibility: 1/4 mile(s):0
Sky conditions: overcast
Weather: fog
Temperature: 45.0 F (7.2 C)
Dew Point: 44.1 F (6.7 C)
Relative Humidity: 96%
Pressure (altimeter): 29.38 in. Hg (994 hPa)
ob: KBGR 260900Z 00000KT 1/4SM R15/1200V2800FT FG OVC001 07/07 A2938 RMK AO2 T00720067
cycle: 9



The data is logged at two minute intervals, but there is data recorded every minute.

Use the RELOAD facility on your browser to retrieve the latest data.

Click here for a daily update of the averages/extremes to date for the month


Created by "Weather Display" software version 10.37R Build 23 at this start time/date 06:34 6/14/2014